X  Close Metar Aviation Weather Data     LYNI Nis Airport
Temperature
32°C Temperature
14°C Dewpoint
33% Humidity



Wind
2 M/S
5 MPH
8 KM/H
4 KTS



280°
W
Current Conditions

Partly Cloudy Partly Cloudy
Pressure 1011.92 (hPa) - 29.88 (inHg)
Visibility 6.2 (mile) - 10 (km)
Airport
Airport-code LYNI

Location: Nis Airport
Distance: 63 (km)

Metar:
LYNI 171400Z 28004KT 250V340 9999 FEW040 32/14 Q1012 NOSIG

Time: 17-08-2022 16:00 CEST